createdAt,value
2024-02-16T00:00:47.723Z,8.52
2024-02-16T00:02:49.747Z,8.41
2024-02-16T00:04:51.848Z,8.30
2024-02-16T00:06:54.002Z,8.22
2024-02-16T00:08:56.020Z,8.22
2024-02-16T00:10:58.107Z,8.45
2024-02-16T00:13:00.035Z,8.17
2024-02-16T00:15:03.104Z,8.48
2024-02-16T00:17:05.891Z,8.29
2024-02-16T00:19:08.068Z,8.21
2024-02-16T00:21:12.681Z,8.42
2024-02-16T00:23:14.809Z,8.35
2024-02-16T00:25:16.767Z,8.32
2024-02-16T00:27:18.891Z,8.32
2024-02-16T00:29:20.945Z,8.38
2024-02-16T00:31:22.972Z,8.35
2024-02-16T00:33:25.033Z,8.15
2024-02-16T00:35:27.154Z,8.56
2024-02-16T00:37:29.145Z,8.44
2024-02-16T00:39:31.199Z,8.05
2024-02-16T00:41:33.352Z,8.24
2024-02-16T00:43:35.356Z,8.14
2024-02-16T00:45:38.154Z,8.01
2024-02-16T00:47:41.004Z,7.85
2024-02-16T00:49:44.323Z,8.16
2024-02-16T00:51:46.282Z,8.23
2024-02-16T00:53:48.242Z,8.21
2024-02-16T00:55:50.268Z,8.15
2024-02-16T00:57:52.357Z,8.28
2024-02-16T00:59:54.466Z,7.97
2024-02-16T01:01:56.476Z,7.98
2024-02-16T01:03:58.451Z,8.16
2024-02-16T01:06:00.662Z,8.02
2024-02-16T01:08:02.634Z,7.88
2024-02-16T01:10:05.190Z,7.73
2024-02-16T01:12:07.583Z,8.13
2024-02-16T01:14:09.883Z,8.13
2024-02-16T01:16:11.883Z,7.76
2024-02-16T01:18:14.416Z,8.04
2024-02-16T01:20:17.509Z,7.71
2024-02-16T01:22:20.044Z,8.02
2024-02-16T01:24:22.715Z,7.85
2024-02-16T01:26:24.708Z,8.15
2024-02-16T01:28:26.725Z,7.84
2024-02-16T01:30:28.847Z,7.97
2024-02-16T01:32:30.924Z,7.68
2024-02-16T01:34:33.149Z,7.94
2024-02-16T01:36:35.324Z,7.77
2024-02-16T01:38:37.393Z,7.76
2024-02-16T01:40:39.421Z,8.11
2024-02-16T01:42:43.238Z,8.05
2024-02-16T01:44:45.223Z,7.97
2024-02-16T01:46:47.225Z,7.93
2024-02-16T01:48:56.188Z,7.79
2024-02-16T01:50:59.183Z,8.01
2024-02-16T01:53:01.285Z,7.88
2024-02-16T01:55:05.728Z,7.70
2024-02-16T01:57:08.949Z,7.60
2024-02-16T01:59:11.161Z,7.98
2024-02-16T02:01:13.197Z,7.60
2024-02-16T02:03:17.184Z,7.73
2024-02-16T02:05:19.719Z,7.67
2024-02-16T02:07:28.483Z,7.71
2024-02-16T02:09:30.540Z,7.69
2024-02-16T02:11:32.606Z,7.89
2024-02-16T02:13:34.655Z,7.78
2024-02-16T02:15:39.257Z,7.85
2024-02-16T02:17:41.652Z,7.68
2024-02-16T02:19:43.795Z,7.48
2024-02-16T02:21:45.910Z,7.44
2024-02-16T02:23:47.913Z,7.67
2024-02-16T02:25:51.625Z,7.90
2024-02-16T02:27:53.810Z,7.69
2024-02-16T02:29:55.830Z,7.75
2024-02-16T02:31:58.105Z,7.67
2024-02-16T02:34:00.438Z,7.60
2024-02-16T02:36:02.673Z,7.39
2024-02-16T02:38:05.976Z,7.78
2024-02-16T02:40:11.932Z,7.64
2024-02-16T02:42:13.999Z,7.50
2024-02-16T02:44:16.122Z,7.79
2024-02-16T02:46:18.589Z,7.53
2024-02-16T02:48:20.721Z,7.62
2024-02-16T02:50:23.047Z,7.61
2024-02-16T02:52:25.211Z,7.84
2024-02-16T02:54:27.276Z,7.68
2024-02-16T02:56:29.644Z,7.68
2024-02-16T02:58:31.697Z,7.75
2024-02-16T03:00:33.743Z,7.52
2024-02-16T03:02:35.774Z,7.54
2024-02-16T03:04:37.889Z,7.65
2024-02-16T03:06:39.995Z,7.55
2024-02-16T03:08:42.178Z,7.18
2024-02-16T03:10:45.544Z,7.45
2024-02-16T03:12:47.574Z,7.39
2024-02-16T03:14:49.559Z,7.34
2024-02-16T03:16:51.649Z,7.81
2024-02-16T03:18:56.222Z,7.67
2024-02-16T03:20:59.164Z,7.20
2024-02-16T03:23:01.222Z,7.38
2024-02-16T03:25:03.507Z,7.61
2024-02-16T03:27:06.571Z,7.34
2024-02-16T03:29:09.185Z,7.22
2024-02-16T03:31:18.341Z,7.03
2024-02-16T03:33:22.282Z,7.47
2024-02-16T03:35:24.298Z,7.58
2024-02-16T03:37:26.781Z,7.43
2024-02-16T03:39:30.803Z,7.35
2024-02-16T03:41:32.918Z,7.33
2024-02-16T03:43:34.850Z,7.79
2024-02-16T03:45:36.963Z,7.96
2024-02-16T03:47:43.193Z,7.53
2024-02-16T03:49:45.686Z,7.50
2024-02-16T03:51:48.665Z,7.54
2024-02-16T03:53:50.671Z,7.63
2024-02-16T03:55:52.750Z,7.90
2024-02-16T03:57:54.815Z,7.82
2024-02-16T03:59:56.872Z,7.84
2024-02-16T04:01:58.909Z,7.82
2024-02-16T04:04:00.911Z,7.83
2024-02-16T04:06:05.779Z,7.49
2024-02-16T04:08:08.655Z,7.40
2024-02-16T04:10:11.062Z,7.82
2024-02-16T04:12:13.129Z,7.75
2024-02-16T04:14:15.597Z,7.76
2024-02-16T04:16:17.574Z,7.64
2024-02-16T04:18:20.288Z,7.47
2024-02-16T04:20:22.751Z,7.63
2024-02-16T04:22:24.764Z,7.62
2024-02-16T04:24:26.816Z,7.26
2024-02-16T04:26:28.847Z,7.52
2024-02-16T04:28:30.787Z,7.92
2024-02-16T04:30:32.853Z,7.75
2024-02-16T04:32:34.872Z,7.61
2024-02-16T04:34:36.996Z,7.63
2024-02-16T04:36:39.327Z,7.74
2024-02-16T04:39:02.540Z,7.73
2024-02-16T04:41:06.724Z,7.41
2024-02-16T04:43:08.797Z,7.62
2024-02-16T04:45:17.045Z,7.89
2024-02-16T04:47:19.110Z,7.76
2024-02-16T04:49:22.909Z,7.62
2024-02-16T04:51:25.080Z,7.69
2024-02-16T04:53:27.122Z,7.62
2024-02-16T04:55:29.783Z,7.89
2024-02-16T04:57:32.560Z,7.73
2024-02-16T04:59:34.564Z,7.77
2024-02-16T05:01:36.538Z,7.74
2024-02-16T05:03:41.782Z,7.74
2024-02-16T05:05:44.620Z,7.86
2024-02-16T05:07:51.357Z,7.83
2024-02-16T05:09:57.046Z,7.97
2024-02-16T05:11:59.122Z,8.09
2024-02-16T05:14:01.244Z,7.63
2024-02-16T05:16:03.449Z,7.46
2024-02-16T05:18:05.906Z,7.83
2024-02-16T05:20:16.872Z,7.93
2024-02-16T05:22:19.844Z,7.99
2024-02-16T05:24:22.084Z,7.79
2024-02-16T05:26:24.017Z,7.88
2024-02-16T05:28:25.993Z,7.59
2024-02-16T05:30:28.028Z,7.27
2024-02-16T05:32:30.025Z,7.61
2024-02-16T05:34:38.741Z,7.79
2024-02-16T05:36:40.881Z,7.60
2024-02-16T05:38:44.474Z,7.71
2024-02-16T05:40:54.832Z,7.72
2024-02-16T05:43:01.313Z,7.82
2024-02-16T05:45:03.669Z,7.96
2024-02-16T05:47:05.671Z,7.84
2024-02-16T05:49:07.794Z,7.68
2024-02-16T05:51:10.217Z,7.62
2024-02-16T05:53:12.366Z,7.33
2024-02-16T05:55:14.587Z,7.86
2024-02-16T05:57:17.837Z,7.77
2024-02-16T05:59:20.045Z,7.54
2024-02-16T06:01:22.112Z,7.52
2024-02-16T06:03:24.611Z,7.50
2024-02-16T06:05:26.664Z,7.60
2024-02-16T06:07:28.883Z,7.53
2024-02-16T06:09:35.210Z,7.20
2024-02-16T06:11:40.475Z,7.53
2024-02-16T06:13:42.467Z,7.58
2024-02-16T06:15:44.572Z,7.57
2024-02-16T06:17:46.798Z,7.12
2024-02-16T06:19:49.674Z,7.46
2024-02-16T06:21:51.642Z,7.56
2024-02-16T06:23:53.717Z,7.74
2024-02-16T06:25:55.843Z,7.55
2024-02-16T06:27:58.680Z,7.90
2024-02-16T06:30:01.127Z,7.88
2024-02-16T06:32:06.269Z,7.86
2024-02-16T06:34:09.488Z,7.44
2024-02-16T06:36:11.934Z,7.49
2024-02-16T06:38:14.027Z,7.68
2024-02-16T06:40:16.208Z,7.77
2024-02-16T06:42:18.224Z,7.71
2024-02-16T06:44:22.947Z,7.60
2024-02-16T06:46:28.670Z,7.63
2024-02-16T06:48:30.818Z,7.60
2024-02-16T06:50:33.240Z,7.64
2024-02-16T06:52:35.408Z,7.81
2024-02-16T06:54:38.115Z,7.41
2024-02-16T06:56:40.214Z,7.84
2024-02-16T06:58:42.597Z,8.15
2024-02-16T07:00:44.949Z,7.59
2024-02-16T07:02:47.378Z,7.34
2024-02-16T07:04:49.452Z,7.40
2024-02-16T07:06:51.973Z,7.50
2024-02-16T07:08:54.086Z,7.44
2024-02-16T07:10:56.760Z,7.69
2024-02-16T07:12:58.874Z,8.08
2024-02-16T07:15:01.094Z,8.15
2024-02-16T07:17:03.181Z,7.86
2024-02-16T07:19:06.595Z,7.81
2024-02-16T07:21:10.651Z,8.13
2024-02-16T07:23:13.489Z,7.92
2024-02-16T07:25:15.813Z,7.62
2024-02-16T07:27:18.753Z,7.87
2024-02-16T07:29:21.122Z,7.79
2024-02-16T07:31:23.159Z,7.89
2024-02-16T07:33:26.244Z,8.11
2024-02-16T07:35:28.608Z,7.86
2024-02-16T07:37:31.759Z,7.92
2024-02-16T07:39:33.929Z,7.94
2024-02-16T07:41:36.129Z,7.84
2024-02-16T07:43:38.112Z,7.86
2024-02-16T07:45:40.555Z,7.94
2024-02-16T07:47:43.299Z,7.62
2024-02-16T07:49:45.891Z,8.07
2024-02-16T07:51:47.979Z,8.15
2024-02-16T07:53:50.193Z,8.12
2024-02-16T07:55:52.155Z,7.70
2024-02-16T07:57:54.481Z,8.14
2024-02-16T07:59:56.465Z,7.77
2024-02-16T08:01:58.503Z,8.15
2024-02-16T08:04:03.974Z,7.88
2024-02-16T08:06:07.784Z,7.98
2024-02-16T08:08:09.883Z,7.89
2024-02-16T08:10:12.908Z,7.63
2024-02-16T08:12:15.433Z,7.97
2024-02-16T08:14:17.373Z,7.90
2024-02-16T08:16:19.428Z,7.62
2024-02-16T08:18:21.765Z,8.18
2024-02-16T08:20:23.951Z,7.98
2024-02-16T08:22:26.066Z,7.83
2024-02-16T08:24:28.550Z,7.83
2024-02-16T08:26:30.643Z,7.83
2024-02-16T08:28:32.691Z,7.79
2024-02-16T08:30:34.906Z,7.86
2024-02-16T08:32:37.084Z,8.19
2024-02-16T08:34:39.684Z,7.85
2024-02-16T08:36:49.088Z,7.85
2024-02-16T08:38:51.265Z,7.79
2024-02-16T08:40:53.343Z,7.91
2024-02-16T08:42:55.648Z,7.97
2024-02-16T08:44:59.504Z,8.18
2024-02-16T08:47:01.577Z,8.08
2024-02-16T08:49:05.107Z,8.19
2024-02-16T08:51:07.648Z,7.99
2024-02-16T08:53:11.549Z,8.23
2024-02-16T08:55:14.028Z,8.12
2024-02-16T08:57:16.324Z,8.17
2024-02-16T08:59:18.933Z,8.14
2024-02-16T09:01:42.787Z,8.05
2024-02-16T09:03:45.187Z,7.93
2024-02-16T09:05:47.583Z,8.18
2024-02-16T09:07:49.649Z,8.28
2024-02-16T09:09:51.611Z,8.62
2024-02-16T09:11:54.321Z,8.43
2024-02-16T09:13:56.517Z,8.58
2024-02-16T09:15:58.537Z,8.80
2024-02-16T09:18:00.636Z,8.44
2024-02-16T09:20:05.744Z,8.27
2024-02-16T09:22:07.858Z,8.14
2024-02-16T09:24:11.880Z,8.02
2024-02-16T09:26:14.580Z,8.03
2024-02-16T09:28:23.699Z,8.08
2024-02-16T09:30:31.548Z,7.79
2024-02-16T09:32:35.830Z,7.74
2024-02-16T09:34:39.011Z,8.05
2024-02-16T09:36:42.049Z,7.90
2024-02-16T09:38:44.043Z,7.72
2024-02-16T09:40:46.140Z,7.71
2024-02-16T09:42:53.357Z,7.72
2024-02-16T09:44:56.100Z,7.87
2024-02-16T09:46:58.749Z,7.94
2024-02-16T09:49:05.035Z,7.86
2024-02-16T09:51:07.286Z,7.68
2024-02-16T09:53:10.398Z,7.98
2024-02-16T09:55:14.433Z,7.84
2024-02-16T09:57:19.290Z,7.65
2024-02-16T09:59:21.372Z,7.62
2024-02-16T10:01:24.771Z,7.64
2024-02-16T10:03:34.284Z,7.84
2024-02-16T10:05:36.923Z,7.89
2024-02-16T10:07:39.076Z,7.74
2024-02-16T10:09:44.128Z,7.79
2024-02-16T10:11:46.511Z,7.85
2024-02-16T10:14:05.631Z,7.75
2024-02-16T10:16:10.502Z,7.84
2024-02-16T10:18:12.867Z,7.94
2024-02-16T10:20:19.845Z,8.18
2024-02-16T10:22:24.158Z,7.78
2024-02-16T10:24:26.358Z,7.71
2024-02-16T10:26:29.751Z,7.98
2024-02-16T10:28:32.549Z,7.78
2024-02-16T10:30:45.277Z,7.59
2024-02-16T10:32:47.318Z,7.58
2024-02-16T10:34:51.316Z,7.81
2024-02-16T10:36:53.499Z,7.91
2024-02-16T10:38:57.767Z,7.71
2024-02-16T10:41:02.744Z,7.90
2024-02-16T10:43:08.684Z,7.79
2024-02-16T10:45:11.883Z,7.68
2024-02-16T10:47:14.001Z,7.69
2024-02-16T10:49:16.164Z,7.81
2024-02-16T10:51:25.784Z,7.89
2024-02-16T10:53:30.164Z,8.30
2024-02-16T10:55:32.475Z,7.87
2024-02-16T10:57:37.800Z,7.60
2024-02-16T10:59:52.138Z,7.71
2024-02-16T11:02:02.388Z,7.49
2024-02-16T11:04:10.299Z,7.81
2024-02-16T11:06:19.563Z,8.06
2024-02-16T11:08:27.842Z,7.91
2024-02-16T11:10:29.962Z,7.69
2024-02-16T11:12:38.515Z,7.43
2024-02-16T11:14:44.381Z,7.30
2024-02-16T11:16:47.166Z,7.39
2024-02-16T11:18:50.731Z,7.71
2024-02-16T11:20:55.599Z,7.53
2024-02-16T11:23:10.923Z,7.40
2024-02-16T11:25:13.099Z,7.32
2024-02-16T11:27:24.802Z,7.41
2024-02-16T11:29:27.385Z,7.31
2024-02-16T11:31:29.501Z,7.31
2024-02-16T11:33:33.307Z,7.25
2024-02-16T11:35:35.580Z,7.35
2024-02-16T11:37:37.674Z,7.31
2024-02-16T11:39:41.200Z,7.37
2024-02-16T11:41:43.267Z,7.45
2024-02-16T11:43:45.616Z,7.35
2024-02-16T11:45:47.728Z,7.55
2024-02-16T11:47:50.015Z,7.32
2024-02-16T11:50:07.950Z,7.46
2024-02-16T11:52:10.129Z,7.49
2024-02-16T11:54:13.575Z,7.42
2024-02-16T11:56:25.767Z,7.31
2024-02-16T11:58:28.165Z,7.38
2024-02-16T12:00:30.236Z,7.59
2024-02-16T12:02:32.249Z,7.30
2024-02-16T12:04:39.491Z,7.72
2024-02-16T12:06:48.890Z,7.48
2024-02-16T12:08:53.696Z,7.34
2024-02-16T12:10:57.032Z,7.40
2024-02-16T12:13:02.745Z,7.50
2024-02-16T12:15:09.239Z,7.28
2024-02-16T12:17:11.327Z,7.72
2024-02-16T12:19:13.597Z,7.58
2024-02-16T12:21:21.099Z,7.50
2024-02-16T12:23:24.009Z,7.60
2024-02-16T12:25:26.911Z,7.86
2024-02-16T12:27:28.949Z,7.79
2024-02-16T12:29:30.890Z,7.67
2024-02-16T12:31:33.074Z,7.40
2024-02-16T12:33:35.184Z,7.22
2024-02-16T12:35:37.183Z,7.56
2024-02-16T12:37:39.905Z,7.81
2024-02-16T12:39:42.057Z,7.55
2024-02-16T12:41:45.321Z,7.41
2024-02-16T12:43:48.013Z,7.31
2024-02-16T12:45:50.121Z,7.37
2024-02-16T12:47:52.624Z,7.40
2024-02-16T12:49:58.706Z,7.32
2024-02-16T12:52:01.150Z,7.69
2024-02-16T12:54:05.383Z,7.70
2024-02-16T12:56:11.229Z,7.50
2024-02-16T12:58:14.305Z,7.74
2024-02-16T13:00:17.032Z,7.57
2024-02-16T13:02:19.129Z,7.60
2024-02-16T13:04:24.455Z,7.72
2024-02-16T13:06:29.279Z,7.70
2024-02-16T13:08:31.888Z,7.73
2024-02-16T13:10:33.844Z,7.65
2024-02-16T13:12:36.529Z,8.15
2024-02-16T13:14:38.539Z,7.70
2024-02-16T13:16:40.533Z,7.96
2024-02-16T13:18:42.605Z,7.74
2024-02-16T13:20:45.222Z,7.69
2024-02-16T13:22:47.192Z,7.59
2024-02-16T13:27:09.169Z,7.77
2024-02-16T13:29:12.265Z,7.72
2024-02-16T13:33:36.970Z,8.02
2024-02-16T13:35:39.405Z,7.84
2024-02-16T13:51:42.138Z,7.86
2024-02-16T13:53:44.249Z,7.58
2024-02-16T13:55:46.447Z,7.45
2024-02-16T13:57:48.505Z,7.47
2024-02-16T13:59:50.681Z,7.59
2024-02-16T14:01:52.694Z,7.50
2024-02-16T14:03:54.932Z,7.49
2024-02-16T14:05:57.473Z,7.54
2024-02-16T14:08:01.028Z,7.41
2024-02-16T14:10:04.435Z,7.58
2024-02-16T14:12:06.976Z,7.55
2024-02-16T14:14:12.243Z,7.54
2024-02-16T14:16:16.370Z,7.31
2024-02-16T14:18:27.222Z,7.30
2024-02-16T14:20:36.479Z,7.68
2024-02-16T14:22:38.689Z,7.49
2024-02-16T14:24:41.005Z,7.74
2024-02-16T14:26:43.904Z,7.58
2024-02-16T14:28:45.931Z,7.55
2024-02-16T14:30:48.025Z,7.28
2024-02-16T14:32:52.285Z,7.20
2024-02-16T14:34:55.500Z,7.15
2024-02-16T14:36:57.746Z,7.13
2024-02-16T14:38:59.802Z,7.19
2024-02-16T14:41:05.296Z,7.41
2024-02-16T14:43:08.805Z,7.22
2024-02-16T14:45:21.038Z,7.17
2024-02-16T14:47:23.596Z,7.16
2024-02-16T14:49:27.918Z,7.16
2024-02-16T14:51:30.125Z,7.15
2024-02-16T14:53:34.377Z,7.38
2024-02-16T14:55:36.622Z,7.32
2024-02-16T14:57:39.638Z,7.33
2024-02-16T14:59:41.800Z,7.32
2024-02-16T15:01:43.918Z,7.16
2024-02-16T15:03:46.491Z,7.27
2024-02-16T15:05:48.533Z,7.18
2024-02-16T15:07:53.173Z,7.13
2024-02-16T15:09:55.335Z,7.20
2024-02-16T15:11:58.270Z,7.44
2024-02-16T15:14:00.228Z,7.32
2024-02-16T15:16:02.669Z,7.32
2024-02-16T15:18:05.720Z,7.08
2024-02-16T15:20:09.016Z,6.85
2024-02-16T15:22:11.362Z,6.80
2024-02-16T15:24:13.528Z,6.83
2024-02-16T15:26:17.835Z,6.82
2024-02-16T15:28:19.972Z,6.81
2024-02-16T15:30:22.075Z,6.76
2024-02-16T15:32:25.373Z,6.71
2024-02-16T15:34:28.505Z,6.70
2024-02-16T15:36:30.832Z,6.64
2024-02-16T15:38:33.073Z,6.59
2024-02-16T15:40:35.019Z,6.65
2024-02-16T15:42:40.257Z,6.59
2024-02-16T15:44:42.275Z,6.61
2024-02-16T15:46:45.675Z,6.58
2024-02-16T15:48:49.898Z,6.61
2024-02-16T15:50:55.466Z,6.60
2024-02-16T15:52:58.922Z,6.49
2024-02-16T15:55:00.868Z,6.57
2024-02-16T15:57:02.852Z,6.59
2024-02-16T15:59:04.942Z,6.50
2024-02-16T16:01:06.962Z,6.51
2024-02-16T16:03:11.075Z,6.50
2024-02-16T16:05:13.330Z,6.43
2024-02-16T16:07:15.822Z,6.44
2024-02-16T16:09:19.132Z,6.46
2024-02-16T16:11:22.482Z,6.40
2024-02-16T16:13:24.515Z,6.42
2024-02-16T16:15:26.612Z,6.42
2024-02-16T16:17:28.731Z,6.36
2024-02-16T16:19:33.112Z,6.30
2024-02-16T16:21:35.746Z,6.29
2024-02-16T16:23:37.893Z,6.24
2024-02-16T16:25:39.895Z,6.24
2024-02-16T16:27:48.579Z,6.25
2024-02-16T16:29:50.611Z,6.20
2024-02-16T16:31:57.117Z,6.29
2024-02-16T16:34:01.681Z,6.26
2024-02-16T16:36:05.532Z,6.23
2024-02-16T16:38:09.031Z,6.26
2024-02-16T16:40:11.780Z,6.17
2024-02-16T16:42:14.235Z,6.24
2024-02-16T16:44:16.341Z,6.21
2024-02-16T16:46:18.428Z,6.19
2024-02-16T16:48:20.636Z,6.11
2024-02-16T16:50:23.053Z,6.07
2024-02-16T16:52:25.226Z,6.04
2024-02-16T16:54:27.234Z,6.08
2024-02-16T16:56:30.726Z,6.12
2024-02-16T16:58:32.735Z,6.11
2024-02-16T17:00:35.439Z,5.96
2024-02-16T17:02:37.496Z,6.02
2024-02-16T17:04:39.475Z,5.95
2024-02-16T17:06:41.939Z,5.94
2024-02-16T17:08:45.950Z,5.94
2024-02-16T17:10:48.864Z,5.93
2024-02-16T17:12:51.121Z,6.00
2024-02-16T17:14:53.965Z,6.05
2024-02-16T17:16:56.091Z,6.02
2024-02-16T17:18:58.436Z,5.99
2024-02-16T17:21:02.220Z,6.00
2024-02-16T17:23:04.578Z,6.10
2024-02-16T17:25:09.650Z,6.07
2024-02-16T17:27:11.854Z,6.08
2024-02-16T17:29:14.726Z,6.05
2024-02-16T17:31:16.869Z,6.01
2024-02-16T17:33:19.777Z,6.05
2024-02-16T17:35:22.321Z,6.07
2024-02-16T17:37:24.525Z,5.99
2024-02-16T17:39:27.619Z,5.99
2024-02-16T17:41:31.469Z,5.96
2024-02-16T17:43:34.260Z,5.94
2024-02-16T17:45:37.146Z,6.05
2024-02-16T17:47:39.649Z,6.05
2024-02-16T17:49:42.098Z,5.96
2024-02-16T17:51:44.826Z,5.96
2024-02-16T17:53:47.624Z,5.97
2024-02-16T17:55:49.803Z,6.01
2024-02-16T17:57:51.976Z,6.08
2024-02-16T17:59:54.060Z,6.05
2024-02-16T18:01:56.182Z,6.07
2024-02-16T18:03:58.244Z,6.01
2024-02-16T18:06:00.575Z,6.10
2024-02-16T18:08:02.865Z,6.04
2024-02-16T18:10:07.471Z,5.91
2024-02-16T18:12:09.846Z,5.92
2024-02-16T18:14:11.869Z,5.91
2024-02-16T18:18:17.637Z,5.92
2024-02-16T18:20:23.866Z,5.96
2024-02-16T18:22:26.188Z,6.00
2024-02-16T18:24:28.296Z,6.01
2024-02-16T18:26:32.404Z,5.94
2024-02-16T18:28:42.266Z,5.97
2024-02-16T18:30:47.991Z,5.93
2024-02-16T18:32:50.803Z,5.92
2024-02-16T18:34:53.195Z,5.96
2024-02-16T18:36:55.394Z,5.98
2024-02-16T18:38:57.595Z,6.04
2024-02-16T18:40:59.924Z,6.07
2024-02-16T18:43:02.476Z,6.08
2024-02-16T18:45:09.874Z,6.08
2024-02-16T18:47:12.056Z,6.12
2024-02-16T18:49:14.293Z,6.05
2024-02-16T18:51:16.399Z,6.04
2024-02-16T18:53:18.563Z,6.01
2024-02-16T18:55:20.642Z,5.95
2024-02-16T18:57:22.713Z,5.95
2024-02-16T18:59:24.668Z,5.92
2024-02-16T19:01:27.266Z,5.93
2024-02-16T19:03:29.341Z,5.91
2024-02-16T19:05:31.785Z,5.92
2024-02-16T19:07:33.877Z,6.02
2024-02-16T19:09:36.626Z,5.91
2024-02-16T19:11:38.570Z,5.92
2024-02-16T19:13:40.975Z,5.96
2024-02-16T19:15:43.138Z,5.96
2024-02-16T19:17:45.327Z,6.17
2024-02-16T19:19:47.458Z,6.02
2024-02-16T19:21:50.893Z,6.20
2024-02-16T19:23:53.046Z,6.12
2024-02-16T19:25:57.029Z,6.11
2024-02-16T19:27:59.129Z,6.00
2024-02-16T19:30:02.819Z,6.00
2024-02-16T19:32:07.022Z,6.25
2024-02-16T19:34:09.083Z,6.19
2024-02-16T19:36:11.446Z,5.98
2024-02-16T19:38:15.443Z,5.91
2024-02-16T19:40:17.898Z,5.86
2024-02-16T19:42:20.135Z,5.97
2024-02-16T19:44:23.139Z,6.01
2024-02-16T19:46:28.105Z,5.94
2024-02-16T19:48:30.614Z,5.96
2024-02-16T19:50:32.865Z,5.86
2024-02-16T19:52:36.076Z,5.84
2024-02-16T19:54:39.256Z,5.93
2024-02-16T19:56:42.048Z,5.94
2024-02-16T19:58:44.190Z,5.93
2024-02-16T20:00:47.993Z,5.90
2024-02-16T20:02:53.238Z,5.84
2024-02-16T20:04:55.383Z,5.82
2024-02-16T20:06:57.639Z,5.94
2024-02-16T20:08:59.901Z,5.83
2024-02-16T20:11:02.063Z,5.82
2024-02-16T20:13:04.483Z,5.94
2024-02-16T20:15:08.171Z,5.94
2024-02-16T20:17:10.726Z,5.91
2024-02-16T20:19:12.807Z,5.98
2024-02-16T20:21:18.279Z,5.93
2024-02-16T20:23:20.140Z,6.06
2024-02-16T20:25:25.446Z,6.13
2024-02-16T20:27:28.205Z,5.90
2024-02-16T20:29:31.172Z,5.92
2024-02-16T20:31:33.967Z,6.07
2024-02-16T20:33:36.826Z,6.06
2024-02-16T20:35:39.005Z,5.99
2024-02-16T20:37:41.049Z,5.94
2024-02-16T20:39:43.103Z,5.94
2024-02-16T20:41:46.514Z,6.23
2024-02-16T20:43:48.641Z,6.07
2024-02-16T20:45:50.967Z,5.99
2024-02-16T20:47:53.688Z,5.85
2024-02-16T20:49:55.982Z,5.72
2024-02-16T20:51:57.985Z,5.76
2024-02-16T20:54:00.249Z,6.27
2024-02-16T20:56:02.976Z,5.96
2024-02-16T20:58:05.260Z,5.78
2024-02-16T21:00:09.721Z,5.62
2024-02-16T21:02:12.000Z,5.59
2024-02-16T21:04:14.425Z,5.52
2024-02-16T21:06:16.698Z,5.55
2024-02-16T21:08:18.986Z,5.56
2024-02-16T21:10:21.321Z,5.59
2024-02-16T21:12:23.495Z,5.55
2024-02-16T21:14:26.055Z,5.46
2024-02-16T21:16:28.035Z,5.42
2024-02-16T21:18:31.177Z,5.49
2024-02-16T21:20:33.909Z,5.40
2024-02-16T21:22:38.444Z,5.40
2024-02-16T21:24:40.792Z,5.40
2024-02-16T21:26:43.292Z,5.45
2024-02-16T21:28:45.317Z,5.38
2024-02-16T21:30:47.610Z,5.40
2024-02-16T21:32:52.256Z,5.37
2024-02-16T21:34:55.881Z,5.30
2024-02-16T21:36:59.369Z,5.31
2024-02-16T21:39:01.665Z,5.30
2024-02-16T21:41:07.782Z,5.25
2024-02-16T21:43:09.909Z,5.35
2024-02-16T21:45:11.949Z,5.27
2024-02-16T21:47:14.878Z,5.31
2024-02-16T21:49:17.289Z,5.33
2024-02-16T21:51:19.488Z,5.31
2024-02-16T21:53:21.666Z,5.36
2024-02-16T21:55:23.697Z,5.27
2024-02-16T21:57:25.690Z,5.30
2024-02-16T21:59:27.771Z,5.25
2024-02-16T22:01:31.778Z,5.32
2024-02-16T22:03:33.958Z,5.24
2024-02-16T22:05:36.049Z,5.26
2024-02-16T22:07:38.309Z,5.22
2024-02-16T22:09:40.314Z,5.39
2024-02-16T22:11:42.425Z,5.26
2024-02-16T22:13:47.345Z,5.52
2024-02-16T22:15:51.387Z,5.37
2024-02-16T22:17:53.490Z,5.41
2024-02-16T22:19:55.668Z,5.33
2024-02-16T22:21:58.244Z,5.39
2024-02-16T22:24:01.144Z,5.46
2024-02-16T22:26:07.514Z,5.48
2024-02-16T22:28:09.664Z,5.37
2024-02-16T22:30:12.583Z,5.40
2024-02-16T22:32:17.787Z,5.24
2024-02-16T22:34:20.857Z,5.64
2024-02-16T22:36:23.001Z,5.40
2024-02-16T22:38:25.347Z,5.45
2024-02-16T22:40:27.562Z,5.38
2024-02-16T22:42:29.745Z,5.23
2024-02-16T22:44:31.836Z,5.40
2024-02-16T22:46:34.297Z,5.43
2024-02-16T22:48:36.445Z,5.28
2024-02-16T22:50:39.452Z,5.28
2024-02-16T22:52:41.728Z,5.13
2024-02-16T22:54:43.765Z,5.23
2024-02-16T22:56:45.780Z,5.23
2024-02-16T22:58:47.983Z,5.34
2024-02-16T23:00:50.236Z,5.37
2024-02-16T23:02:54.198Z,5.25
2024-02-16T23:04:59.315Z,5.21
2024-02-16T23:07:01.699Z,5.09
2024-02-16T23:09:09.374Z,5.03
2024-02-16T23:11:12.054Z,5.04
2024-02-16T23:13:14.182Z,4.97
2024-02-16T23:15:20.907Z,5.04
2024-02-16T23:17:22.885Z,5.08
2024-02-16T23:19:25.165Z,5.01
2024-02-16T23:21:27.428Z,5.06
2024-02-16T23:23:29.650Z,5.18
2024-02-16T23:25:36.966Z,5.02
2024-02-16T23:27:39.305Z,4.98
2024-02-16T23:29:41.353Z,5.41
2024-02-16T23:31:43.405Z,5.12
2024-02-16T23:33:46.370Z,4.93
2024-02-16T23:35:50.179Z,5.01
2024-02-16T23:37:52.625Z,5.03
2024-02-16T23:39:54.560Z,5.03
2024-02-16T23:42:00.721Z,5.24
2024-02-16T23:44:02.834Z,5.16
2024-02-16T23:46:07.338Z,4.97
2024-02-16T23:48:09.827Z,4.88
2024-02-16T23:50:14.833Z,4.81
2024-02-16T23:52:17.720Z,4.83
2024-02-16T23:54:19.806Z,4.82
2024-02-16T23:56:21.805Z,4.77
2024-02-16T23:58:23.960Z,4.84
